Tiempo atmosférico en la estación meteorológica de Fuente De Cantos, Badajoz (602 m.)



Fecha
DESCASC
Temp. máxima en grados centígrados (hora)
DESCASC
Temp. mínima en grados centígrados (hora)
DESCASC
Temp. media en grados centígrados
DESCASC
Racha de viento máxima en m/sg (hora)
DESCASC
Velocidad máxima media en intervalos de 10 minutos(hora)
DESCASC
Precipitaciones diarias en mm
DESCASC
Precipitaciones de 00:00 a 06:00 en mm
DESCASC
Precipitaciones de 06:00 a 12:00 en mm
DESCASC
Precipitaciones de 12:00 a 18:00 en mm
DESCASC
Precipitaciones de 18:00 a 24:00 en mm
DESCASC
17-03-2019 16.9 (14:10) 6.3 (08:10) 11.6 12.22 (15:20) 9.17 (15:40) 0 0 0 0 0
16-03-2019 23.5 (15:10) 12.8 (06:30) 18.2 8.61 (15:10) 6.39 (05:50) 0 0 0 0 0
15-03-2019 23.9 (16:00) 5.8 (05:00) 14.8 8.06 (17:00) 5.28 (00:10) 0 0 0 0 0
14-03-2019 18.6 (16:20) 5.6 (00:00) 12.1 9.17 (12:20) 6.11 (12:10) 0 0 0 0 0
13-03-2019 15.5 (17:30) 5.1 (00:00) 10.3 12.5 (14:20) 9.44 (13:20) 0 0 0 0 0
12-03-2019 21.5 (14:40) 9.6 (00:00) 15.6 11.39 (16:50) 7.5 (13:50) 0 0 0 0 0
11-03-2019 21.5 (16:00) 9.8 (00:00) 15.7 7.78 (17:10) 5.56 (17:10) 0 0 0 0 0
10-03-2019 21 (16:10) 9.2 (00:00) 15.1 6.94 (17:10) 5.28 (20:30) 0 0 0 0 0
09-03-2019 18.6 (16:50) 7.2 (00:00) 12.9 7.5 (15:50) 4.72 (15:10) 0 0 0 0 0
08-03-2019 13.6 (17:20) 5.9 (00:00) 9.8 7.78 (16:00) 5.28 (20:10) 1.2 1 0.2 0 0
07-03-2019 12.4 (16:40) 4.5 (00:00) 8.4 9.17 (18:40) 7.5 (18:30) 1.8 0 0 0 1.8
06-03-2019 14.3 (12:40) 5.4 (00:00) 9.9 20.56 (12:50) 15.83 (12:50) 7.2 0 4.6 2.6 0
05-03-2019 16.8 (15:10) 8.6 (00:00) 12.7 11.67 (13:30) 8.33 (17:20) 0 0 0 0 0
04-03-2019 16.8 (16:40) 7.1 (00:00) 11.9 12.22 (16:50) 9.44 (16:50) 0 0 0 0 0
03-03-2019 21.9 (15:30) 7.3 (00:00) 14.6 8.89 (16:50) 5.83 (17:10) 0 0 0 0 0
02-03-2019 19.5 (16:30) 6.4 (00:00) 13 5.28 (15:50) 3.61 (20:30) 0 0 0 0 0
01-03-2019 18.8 (15:10) 8.2 (00:00) 13.5 9.44 (16:10) 5.28 (17:30) 0 0 0 0 0
28-02-2019 19.1 (16:30) 7.6 (00:00) 13.4 7.22 (17:50) 6.11 (18:00) 0 0 0 0 0
27-02-2019 19 (13:50) 7.5 (00:00) 13.3 11.67 (06:10) 9.17 (06:10) 0 0 0 0 0
26-02-2019 20.5 (15:30) 6.8 (00:00) 13.7 12.5 (14:50) 9.72 (14:30) 0 0 0 0 0
25-02-2019 19.8 (16:50) 7.6 (00:00) 13.7 9.17 (03:10) 8.06 (07:20) 0 0 0 0 0
24-02-2019 21.1 (16:50) 8.6 (00:00) 14.9 8.61 (13:10) 6.67 (23:30) 0 0 0 0 0
23-02-2019 19.6 (16:10) 9.9 (00:00) 14.8 7.78 (15:20) 5.83 (18:40) 0 0 0 0 0
22-02-2019 19.4 (16:10) 6.8 (00:00) 13.1 10.56 (04:20) 8.89 (04:20) 0 0 0 0 0
21-02-2019 17.9 (15:50) 6 (00:00) 11.9 12.5 (11:00) 9.72 (10:50) 0 0 0 0 0
20-02-2019 16.1 (17:20) 7.3 (00:00) 11.7 5.83 (07:10) 5.28 (22:30) 0 0 0 0 0

Gráficas

Temp. máximas Temp. mínimas Temp. medias Precipitaciones Rachas de viento máximas Velocidades máximas media en intervalos de 10 minutos

Datos horarios

Fecha y hora oficial Temperatura (ºC) Velocidad del viento (km/h) Dirección del viento Racha (km/h) Dirección de racha Precipitación (mm) Presión (hPa) Tendencia (hPa) Humedad (%)
2019-03-21 23:00:00 10.5 15 Este 20 Este 0 -- -- 36
2019-03-21 22:00:00 10.5 14 Este 21 Este 0 -- -- 35
2019-03-21 21:00:00 8.5 18 Nordeste 18 Nordeste 0 -- -- 42
2019-03-21 20:00:00 10.2 16 Nordeste 23 Nordeste 0 -- -- 37
2019-03-21 19:00:00 14.3 17 Nordeste 31 Nordeste 0 -- -- 30
2019-03-21 18:00:00 16 17 Nordeste 32 Este 0 -- -- 27
2019-03-21 17:00:00 16.5 21 Este 35 Nordeste 0 -- -- 24
2019-03-21 16:00:00 16.4 17 Este 36 Este 0 -- -- 25
2019-03-21 15:00:00 16.3 20 Este 44 Este 0 -- -- 26
2019-03-21 14:00:00 15.8 27 Este 44 Nordeste 0 -- -- 27
2019-03-21 13:00:00 15.3 24 Este 45 Este 0 -- -- 36
2019-03-21 12:00:00 14.4 24 Este 37 Este 0 -- -- 45
2019-03-21 11:00:00 12.6 16 Este 24 Este 0 -- -- 56
2019-03-21 10:00:00 10.6 10 Este 17 Este 0 -- -- 64
2019-03-21 09:00:00 7.4 8 Sudeste 20 Sudeste 0 -- -- 77
2019-03-21 08:00:00 5.5 16 Este 21 Sudeste 0 -- -- 83
2019-03-21 07:00:00 5.5 14 Sudeste 18 Sudeste 0 -- -- 81
2019-03-21 06:00:00 5.5 19 Sudeste 26 Sudeste 0 -- -- 78
2019-03-21 05:00:00 6.1 14 Sudeste 18 Sudeste 0 -- -- 74
2019-03-21 04:00:00 6.9 13 Sudeste 24 Sudeste 0 -- -- 66
2019-03-21 03:00:00 7.6 20 Este 26 Este 0 -- -- 60
2019-03-21 02:00:00 8.8 14 Este 18 Este 0 -- -- 52
2019-03-21 01:00:00 9.2 9 Sudeste 17 Este 0 -- -- 51
2019-03-21 00:00:00 10.2 12 Este 17 Este 0 -- -- 43
2019-03-20 23:00:00 10.2 15 Este 19 Este 0 -- -- 44
2019-03-20 22:00:00 10 15 Este 27 Nordeste 0 -- -- 45
2019-03-20 21:00:00 8.8 17 Nordeste 20 Nordeste 0 -- -- 49
2019-03-20 20:00:00 10.7 13 Nordeste 21 Nordeste 0 -- -- 44
2019-03-20 19:00:00 14.2 21 Nordeste 28 Nordeste 0 -- -- 36
2019-03-20 18:00:00 15.5 18 Nordeste 28 Nordeste 0 -- -- 34
2019-03-20 17:00:00 15.5 18 Nordeste 33 Nordeste 0 -- -- 32
2019-03-20 16:00:00 15.9 21 Nordeste 34 Nordeste 0 -- -- 31
2019-03-20 15:00:00 15.3 25 Nordeste 38 Nordeste 0 -- -- 34
2019-03-20 14:00:00 15.2 23 Nordeste 41 Nordeste 0 -- -- 37
2019-03-20 13:00:00 14.2 24 Nordeste 37 Nordeste 0 -- -- 39
2019-03-20 12:00:00 12.5 26 Nordeste 39 Este 0 -- -- 42
2019-03-20 11:00:00 11.4 28 Este 41 Este 0 -- -- 45
2019-03-20 10:00:00 9.4 33 Este 43 Este 0 -- -- 48
2019-03-20 09:00:00 7.5 30 Este 45 Este 0 -- -- 52
2019-03-20 08:00:00 6.2 33 Este 47 Este 0 -- -- 54
2019-03-20 07:00:00 6.7 30 Este 42 Este 0 -- -- 53
2019-03-20 06:00:00 7.4 26 Este 33 Este 0 -- -- 52
2019-03-20 05:00:00 7.1 23 Este 29 Este 0 -- -- 53
2019-03-20 04:00:00 7.4 23 Este 30 Este 0 -- -- 56
2019-03-20 03:00:00 7.6 14 Este 21 Nordeste 0 -- -- 55
2019-03-20 02:00:00 6.8 15 Nordeste 22 Nordeste 0 -- -- 59
2019-03-20 01:00:00 7.5 18 Nordeste 21 Nordeste 0 -- -- 55
2019-03-20 00:00:00 7.7 14 Nordeste 15 Nordeste 0 -- -- 53
2019-03-19 23:00:00 8.4 12 Nordeste 16 Nordeste 0 -- -- 50
2019-03-19 22:00:00 7.9 15 Nordeste 17 Nordeste 0 -- -- 54
2019-03-19 21:00:00 9.2 15 Nordeste 22 Nordeste 0 -- -- 50
2019-03-19 20:00:00 12 18 Nordeste 31 Nordeste 0 -- -- 42
2019-03-19 19:00:00 14.7 22 Nordeste 36 Nordeste 0 -- -- 37
2019-03-19 18:00:00 16.1 26 Nordeste 39 Nordeste 0 -- -- 35
2019-03-19 17:00:00 16.6 25 Nordeste 39 Nordeste 0 -- -- 35
2019-03-19 16:00:00 16.8 27 Nordeste 40 Nordeste 0 -- -- 33
2019-03-19 15:00:00 16.4 23 Nordeste 38 Nordeste 0 -- -- 33
2019-03-19 14:00:00 16.7 17 Nordeste 34 Nordeste 0 -- -- 34
2019-03-19 13:00:00 16.4 24 Este 39 Este 0 -- -- 34
2019-03-19 12:00:00 15.3 30 Nordeste 41 Este 0 -- -- 32
2019-03-19 11:00:00 14.5 29 Este 38 Nordeste 0 -- -- 36
2019-03-19 10:00:00 12.6 24 Este 31 Este 0 -- -- 35
2019-03-19 09:00:00 9.5 15 Nordeste 21 Este 0 -- -- 43
2019-03-19 08:00:00 7.5 19 Este 23 Este 0 -- -- 44
2019-03-19 07:00:00 6.4 17 Este 19 Este 0 -- -- 49
2019-03-19 06:00:00 4.4 13 Nordeste 14 Nordeste 0 -- -- 61
2019-03-19 05:00:00 6.3 9 Nordeste 10 Nordeste 0 -- -- 57
2019-03-19 04:00:00 7.6 6 Nordeste 8 Nordeste 0 -- -- 51
2019-03-19 03:00:00 8.1 0 Calma 3 Nordeste 0 -- -- 50
2019-03-19 02:00:00 8.7 2 Norte 3 Norte 0 -- -- 48
2019-03-19 01:00:00 8.5 0 Calma 4 Sudeste 0 -- -- 48
2019-03-19 00:00:00 9.3 4 Norte 11 Noroeste 0 -- -- 46
2019-03-18 23:00:00 9.1 5 Norte 26 Norte 0 -- -- 46
2019-03-18 22:00:00 10.8 20 Norte 28 Norte 0 -- -- 40
2019-03-18 21:00:00 12 21 Norte 28 Norte 0 -- -- 43
2019-03-18 20:00:00 13.1 21 Norte 26 Norte 0 -- -- 46
2019-03-18 19:00:00 16.4 19 Norte 28 Norte 0 -- -- 36
2019-03-18 18:00:00 17.8 16 Norte 30 Norte 0 -- -- 34
2019-03-18 17:00:00 18.2 15 Norte 33 Nordeste 0 -- -- 37
2019-03-18 16:00:00 18.8 14 Nordeste 37 Nordeste 0 -- -- 38
2019-03-18 15:00:00 18.4 19 Nordeste 38 Nordeste 0 -- -- 39
2019-03-18 14:00:00 17.9 23 Nordeste 41 Nordeste 0 -- -- 43
2019-03-18 13:00:00 17.4 25 Este 41 Nordeste 0 -- -- 44
2019-03-18 12:00:00 15.9 28 Este 40 Este 0 -- -- 51
2019-03-18 11:00:00 12.1 20 Este 31 Este 0 -- -- 74
2019-03-18 10:00:00 7.9 8 Nordeste 17 Norte 0 -- -- 98
2019-03-18 09:00:00 6.4 5 Nordeste 8 Nordeste 0 -- -- 97
2019-03-18 08:00:00 6.4 4 Noroeste 8 Oeste 0 -- -- 97
2019-03-18 07:00:00 6.6 6 Oeste 12 Oeste 0 -- -- 96
2019-03-18 06:00:00 7.5 8 Oeste 14 Oeste 0 -- -- 96
2019-03-18 05:00:00 7.7 8 Oeste 12 Oeste 0 -- -- 96
2019-03-18 04:00:00 7.9 9 Oeste 13 Oeste 0 -- -- 96
2019-03-18 03:00:00 7.5 5 Sudoeste 8 Oeste 0 -- -- 95
2019-03-18 02:00:00 7.5 6 Sudoeste 12 Oeste 0 -- -- 93
2019-03-18 01:00:00 8 8 Oeste 14 Oeste 0 -- -- 92
2019-03-18 00:00:00 8.7 6 Oeste 19 Noroeste 0 -- -- 90
2019-03-17 23:00:00 9 10 Noroeste 21 Noroeste 0 -- -- 88
2019-03-17 22:00:00 9.7 12 Noroeste 21 Noroeste 0 -- -- 84
2019-03-17 21:00:00 10.6 9 Noroeste 20 Noroeste 0 -- -- 77
2019-03-17 20:00:00 12.4 17 Noroeste 31 Noroeste 0 -- -- 70
2019-03-17 19:00:00 14.6 27 Noroeste 38 Noroeste 0 -- -- 59
2019-03-17 18:00:00 15.7 28 Noroeste 44 Noroeste 0 -- -- 53
2019-03-17 17:00:00 16.2 26 Noroeste 39 Noroeste 0 -- -- 49
2019-03-17 16:00:00 16.1 27 Oeste 44 Oeste 0 -- -- 54
2019-03-17 15:00:00 16 29 Oeste 41 Oeste 0 -- -- 50
2019-03-17 14:00:00 16.4 24 Oeste 36 Oeste 0 -- -- 49
2019-03-17 13:00:00 16.3 23 Oeste 36 Oeste 0 -- -- 42
2019-03-17 12:00:00 15 24 Oeste 31 Oeste 0 -- -- 42
2019-03-17 11:00:00 13.4 17 Oeste 25 Oeste 0 -- -- 49
2019-03-17 10:00:00 11 15 Oeste 20 Oeste 0 -- -- 67
2019-03-17 09:00:00 8.1 7 Sudoeste 12 Oeste 0 -- -- 80
2019-03-17 08:00:00 6.5 10 Oeste 12 Oeste 0 -- -- 75
2019-03-17 07:00:00 7.8 8 Oeste 9 Oeste 0 -- -- 74
2019-03-17 06:00:00 9.5 6 Sudoeste 10 Sur 0 -- -- 67
2019-03-17 05:00:00 9.6 6 Sudoeste 10 Sudoeste 0 -- -- 73
2019-03-17 04:00:00 10.4 6 Sudoeste 10 Sudoeste 0 -- -- 70
2019-03-17 03:00:00 10.4 4 Sur 10 Sudoeste 0 -- -- 69
2019-03-17 02:00:00 10.6 8 Sudoeste 10 Sudoeste 0 -- -- 66
2019-03-17 01:00:00 11.3 6 Sudoeste 12 Sudoeste 0 -- -- 58
2019-03-17 00:00:00 12.8 6 Sudoeste 13 Sudoeste 0 -- -- 46
2019-03-16 23:00:00 13.9 6 Sur 9 Sur 0 -- -- 45
2019-03-16 22:00:00 14.8 5 Sur 10 Sudoeste 0 -- -- 43
2019-03-16 21:00:00 15.7 9 Sudoeste 17 Oeste 0 -- -- 44
2019-03-16 20:00:00 16.9 10 Oeste 18 Sudoeste 0 -- -- 41
2019-03-16 19:00:00 21.3 15 Sudoeste 21 Sudoeste 0 -- -- 28
2019-03-16 18:00:00 22.7 13 Sudoeste 24 Sudoeste 0 -- -- 23
2019-03-16 17:00:00 23.4 13 Sur 26 Sur 0 -- -- 22
2019-03-16 16:00:00 23.2 12 Sudoeste 31 Sudeste 0 -- -- 21
2019-03-16 15:00:00 23 12 Sur 30 Sur 0 -- -- 24
2019-03-16 14:00:00 22.8 16 Sur 29 Sur 0 -- -- 22
2019-03-16 13:00:00 22.3 9 Sur 26 Sur 0 -- -- 21
2019-03-16 12:00:00 21.3 14 Sur 27 Sur 0 -- -- 19
2019-03-16 11:00:00 19.4 21 Sudeste 27 Sudeste 0 -- -- 22
2019-03-16 10:00:00 17.3 14 Sudeste 19 Sudeste 0 -- -- 27
2019-03-16 09:00:00 14.9 12 Este 21 Este 0 -- -- 32
2019-03-16 08:00:00 14 17 Este 21 Este 0 -- -- 32
2019-03-16 07:00:00 13.7 19 Sudeste 25 Este 0 -- -- 33
2019-03-16 06:00:00 13.7 23 Sudeste 25 Este 0 -- -- 33
2019-03-16 05:00:00 14.7 17 Este 23 Sudeste 0 -- -- 33
2019-03-16 04:00:00 15.2 13 Sudeste 14 Sudeste 0 -- -- 30
2019-03-16 03:00:00 16.2 10 Sudeste 15 Sudeste 0 -- -- 27
2019-03-16 02:00:00 15.2 12 Sudeste 15 Sudeste 0 -- -- 32
2019-03-16 01:00:00 16.7 7 Este 11 Este 0 -- -- 31
2019-03-16 00:00:00 15.2 11 Este 13 Este 0 -- -- 37
2019-03-15 23:00:00 17.4 11 Este 15 Este 0 -- -- 30
2019-03-15 22:00:00 16.7 11 Sudeste 15 Sudeste 0 -- -- 31
2019-03-15 21:00:00 18 12 Este 15 Este 0 -- -- 28
2019-03-15 20:00:00 16.2 13 Nordeste 15 Nordeste 0 -- -- 34
2019-03-15 19:00:00 20 15 Nordeste 16 Nordeste 0 -- -- 29
2019-03-15 18:00:00 23.6 7 Este 18 Este 0 -- -- 20
2019-03-15 17:00:00 23.8 12 Este 29 Sudeste 0 -- -- 20
2019-03-15 16:00:00 23.9 4 Este 15 Nordeste 0 -- -- 21
2019-03-15 15:00:00 23.1 9 Nordeste 17 Nordeste 0 -- -- 20
2019-03-15 14:00:00 22.3 7 Nordeste 21 Sudeste 0 -- -- 25
2019-03-15 13:00:00 21.3 10 Este 20 Este 0 -- -- 22
2019-03-15 12:00:00 19.5 13 Este 23 Este 0 -- -- 26
2019-03-15 11:00:00 17.6 12 Este 21 Este 0 -- -- 34
2019-03-15 10:00:00 14.7 14 Este 19 Este 0 -- -- 42
2019-03-15 09:00:00 11.7 15 Este 22 Este 0 -- -- 52
2019-03-15 08:00:00 8.6 15 Sudeste 19 Este 0 -- -- 56
2019-03-15 07:00:00 10.3 13 Este 20 Este 0 -- -- 51
2019-03-15 06:00:00 9.8 14 Este 18 Nordeste 0 -- -- 56
2019-03-15 05:00:00 5.8 15 Nordeste 17 Nordeste 0 -- -- 69
2019-03-15 04:00:00 9.9 6 Este 13 Nordeste 0 -- -- 54
2019-03-15 03:00:00 9.3 11 Este 18 Nordeste 0 -- -- 58
2019-03-15 02:00:00 8.2 12 Nordeste 20 Nordeste 0 -- -- 61
2019-03-15 01:00:00 8.6 10 Nordeste 21 Nordeste 0 -- -- 56
2019-03-15 00:00:00 8.4 20 Nordeste 21 Nordeste 0 -- -- 54
2019-03-14 23:00:00 8.6 14 Nordeste 18 Nordeste 0 -- -- 53
2019-03-14 22:00:00 9.6 14 Nordeste 17 Nordeste 0 -- -- 49
2019-03-14 21:00:00 10.1 15 Nordeste 17 Nordeste 0 -- -- 50
2019-03-14 20:00:00 11.6 15 Nordeste 18 Nordeste 0 -- -- 47
2019-03-14 19:00:00 16 14 Nordeste 23 Nordeste 0 -- -- 36
2019-03-14 18:00:00 18 15 Nordeste 22 Norte 0 -- -- 30
2019-03-14 17:00:00 18.3 13 Nordeste 26 Nordeste 0 -- -- 28
2019-03-14 16:00:00 18.5 16 Nordeste 28 Nordeste 0 -- -- 32
2019-03-14 15:00:00 18.1 15 Este 28 Este 0 -- -- 33
2019-03-14 14:00:00 17.2 17 Este 30 Este 0 -- -- 31
2019-03-14 13:00:00 16.2 20 Este 33 Este 0 -- -- 37
2019-03-14 12:00:00 15.1 20 Este 31 Este 0 -- -- 36
2019-03-14 11:00:00 14 14 Este 20 Este 0 -- -- 40
2019-03-14 10:00:00 11.5 13 Este 22 Este 0 -- -- 46
2019-03-14 09:00:00 7.9 9 Este 16 Este 0 -- -- 59
2019-03-14 08:00:00 5.7 13 Este 17 Este 0 -- -- 60
2019-03-14 07:00:00 6.9 13 Este 19 Este 0 -- -- 55
2019-03-14 06:00:00 6.4 17 Este 22 Este 0 -- -- 58
2019-03-14 05:00:00 5.9 14 Este 18 Este 0 -- -- 61
2019-03-14 04:00:00 6.3 9 Este 13 Este 0 -- -- 61
2019-03-14 03:00:00 6.3 5 Nordeste 10 Nordeste 0 -- -- 64
2019-03-14 02:00:00 7.6 2 Nordeste 9 Norte 0 -- -- 59
2019-03-14 01:00:00 7.8 0 Calma 10 Noroeste 0 -- -- 58
2019-03-14 00:00:00 7.9 4 Oeste 17 Norte 0 -- -- 58
2019-03-13 23:00:00 8 7 Noroeste 20 Norte 0 -- -- 57
2019-03-13 22:00:00 8.7 18 Norte 24 Norte 0 -- -- 55
2019-03-13 21:00:00 9.1 13 Norte 22 Norte 0 -- -- 56
2019-03-13 20:00:00 10.5 14 Norte 23 Norte 0 -- -- 57
2019-03-13 19:00:00 14.1 21 Norte 27 Norte 0 -- -- 46
2019-03-13 18:00:00 15.2 23 Norte 40 Norte 0 -- -- 44
2019-03-13 17:00:00 15.4 28 Noroeste 41 Noroeste 0 -- -- 40
2019-03-13 16:00:00 15.3 28 Noroeste 42 Noroeste 0 -- -- 41
2019-03-13 15:00:00 14.2 28 Noroeste 45 Norte 0 -- -- 46
2019-03-13 14:00:00 13.4 33 Noroeste 44 Noroeste 0 -- -- 48
2019-03-13 13:00:00 12.2 26 Noroeste 38 Noroeste 0 -- -- 54
2019-03-13 12:00:00 11.2 28 Noroeste 36 Noroeste 0 -- -- 63
2019-03-13 11:00:00 9.6 25 Noroeste 35 Noroeste 0 -- -- 72
2019-03-13 10:00:00 8.2 28 Noroeste 36 Noroeste 0 -- -- 87
2019-03-13 09:00:00 7 21 Noroeste 30 Noroeste 0 -- -- 96
2019-03-13 08:00:00 7.6 20 Noroeste 28 Noroeste 0 -- -- 96
2019-03-13 07:00:00 7.3 14 Noroeste 19 Noroeste 0 -- -- 97
2019-03-13 06:00:00 6.2 10 Noroeste 15 Noroeste 0 -- -- 97
2019-03-13 05:00:00 5.1 12 Oeste 14 Oeste 0 -- -- 95
2019-03-13 04:00:00 5.9 9 Oeste 11 Oeste 0 -- -- 95
2019-03-13 03:00:00 6.6 8 Oeste 13 Oeste 0 -- -- 94
2019-03-13 02:00:00 7.1 13 Oeste 17 Oeste 0 -- -- 93
2019-03-13 01:00:00 8.1 14 Oeste 23 Oeste 0 -- -- 89
2019-03-13 00:00:00 9.6 14 Oeste 21 Oeste 0 -- -- 84
2019-03-12 23:00:00 10.4 17 Oeste 20 Oeste 0 -- -- 77
2019-03-12 22:00:00 11.8 10 Oeste 19 Oeste 0 -- -- 67
2019-03-12 21:00:00 13.2 21 Oeste 28 Oeste 0 -- -- 63
2019-03-12 20:00:00 15.7 24 Oeste 29 Oeste 0 -- -- 57
2019-03-12 19:00:00 18.3 20 Oeste 32 Oeste 0 -- -- 53
2019-03-12 18:00:00 20.1 23 Oeste 33 Oeste 0 -- -- 41
2019-03-12 17:00:00 20.9 20 Oeste 41 Oeste 0 -- -- 41
2019-03-12 16:00:00 21.5 22 Oeste 33 Sudoeste 0 -- -- 40
2019-03-12 15:00:00 21.5 23 Oeste 37 Oeste 0 -- -- 43
2019-03-12 14:00:00 21.1 26 Oeste 39 Oeste 0 -- -- 47
2019-03-12 13:00:00 20.5 24 Oeste 33 Oeste 0 -- -- 47
2019-03-12 12:00:00 20.1 24 Sudoeste 33 Sudoeste 0 -- -- 49
2019-03-12 11:00:00 18.8 13 Sudoeste 20 Sudoeste 0 -- -- 53
2019-03-12 10:00:00 16.1 7 Sudeste 12 Sudeste 0 -- -- 64
2019-03-12 09:00:00 13.4 9 Sudeste 15 Sudeste 0 -- -- 69
2019-03-12 08:00:00 11.5 14 Sudeste 16 Sudeste 0 -- -- 70
2019-03-12 07:00:00 12.2 13 Sudeste 15 Sudeste 0 -- -- 73
2019-03-12 06:00:00 12.6 4 Sudeste 6 Sudeste 0 -- -- 70
2019-03-12 05:00:00 12.9 0 Calma 4 Nordeste 0 -- -- 67
2019-03-12 04:00:00 13.4 0 Calma 2 Noroeste 0 -- -- 66
2019-03-12 03:00:00 13.8 0 Calma 3 Nordeste 0 -- -- 64
2019-03-12 02:00:00 13.6 0 Calma 13 Sudeste 0 -- -- 66
2019-03-12 01:00:00 13.9 0 Calma 5 Nordeste 0 -- -- 65
2019-03-12 00:00:00 13.9 3 Sur 5 Sur 0 -- -- 67
2019-03-11 23:00:00 14.6 2 Oeste 3 Noroeste 0 -- -- 65
2019-03-11 22:00:00 14.8 3 Oeste 10 Nordeste 0 -- -- 63
2019-03-11 21:00:00 15.1 9 Nordeste 13 Norte 0 -- -- 63
2019-03-11 20:00:00 15.6 12 Norte 18 Norte 0 -- -- 59
2019-03-11 19:00:00 19.1 14 Noroeste 22 Noroeste 0 -- -- 50
2019-03-11 18:00:00 20.8 16 Noroeste 28 Noroeste 0 -- -- 42
2019-03-11 17:00:00 21.2 16 Noroeste 26 Noroeste 0 -- -- 45
2019-03-11 16:00:00 21.5 13 Norte 28 Noroeste 0 -- -- 44
2019-03-11 15:00:00 20.8 11 Norte 26 Norte 0 -- -- 46
2019-03-11 14:00:00 20.5 18 Norte 27 Norte 0 -- -- 47
2019-03-11 13:00:00 19.7 19 Norte 27 Norte 0 -- -- 51
2019-03-11 12:00:00 17.8 15 Norte 24 Noroeste 0 -- -- 62
2019-03-11 11:00:00 15.2 8 Noroeste 13 Noroeste 0 -- -- 75
2019-03-11 10:00:00 12.9 5 Noroeste 9 Oeste 0 -- -- 79
2019-03-11 09:00:00 11.2 4 Oeste 8 Sudoeste 0 -- -- 88
2019-03-11 08:00:00 9.8 4 Sur 10 Noroeste 0 -- -- 91
2019-03-11 07:00:00 10.1 8 Noroeste 12 Noroeste 0 -- -- 89
2019-03-11 06:00:00 11 5 Oeste 9 Sudoeste 0 -- -- 87
2019-03-11 05:00:00 11 6 Sudoeste 10 Oeste 0 -- -- 88
2019-03-11 04:00:00 10.8 6 Oeste 9 Oeste 0 -- -- 88
2019-03-11 03:00:00 11.5 4 Oeste 7 Oeste 0 -- -- 85
2019-03-11 02:00:00 12.3 5 Oeste 6 Oeste 0 -- -- 81
2019-03-11 01:00:00 12.7 4 Sudoeste 6 Sudoeste 0 -- -- 79
2019-03-11 00:00:00 13 6 Sudoeste 6 Sudoeste 0 -- -- 76
2019-03-10 23:00:00 13 2 Oeste 9 Noroeste 0 -- -- 77
2019-03-10 22:00:00 13.3 12 Norte 18 Noroeste 0 -- -- 74
2019-03-10 21:00:00 14.8 15 Noroeste 20 Noroeste 0 -- -- 68
2019-03-10 20:00:00 15.7 17 Noroeste 19 Noroeste 0 -- -- 64
2019-03-10 19:00:00 18.9 15 Noroeste 22 Noroeste 0 -- -- 52
2019-03-10 18:00:00 20.5 14 Noroeste 25 Noroeste 0 -- -- 47
2019-03-10 17:00:00 20.7 14 Noroeste 22 Noroeste 0 -- -- 47
2019-03-10 16:00:00 20.7 14 Norte 21 Norte 0 -- -- 47
2019-03-10 15:00:00 20.4 11 Noroeste 18 Norte 0 -- -- 44
2019-03-10 14:00:00 19.8 7 Norte 19 Norte 0 -- -- 48
2019-03-10 13:00:00 19 11 Norte 17 Norte 0 -- -- 46
2019-03-10 12:00:00 18.5 6 Norte 14 Nordeste 0 -- -- 46
2019-03-10 11:00:00 17.3 4 Este 7 Este 0 -- -- 56
2019-03-10 10:00:00 15.1 0 Calma 5 Nordeste 0 -- -- 64
2019-03-10 09:00:00 11.7 3 Este 6 Este 0 -- -- 72
2019-03-10 08:00:00 9.9 4 Nordeste 6 Sudeste 0 -- -- 72
2019-03-10 07:00:00 10.1 0 Calma 4 Sur 0 -- -- 70
2019-03-10 06:00:00 10.3 3 Este 5 Nordeste 0 -- -- 67
2019-03-10 05:00:00 9.7 -- -- -- -- 0 -- -- 68
2019-03-10 04:00:00 10.1 5 Norte 12 Noroeste 0 -- -- 66
2019-03-10 03:00:00 10.6 8 Noroeste 12 Noroeste 0 -- -- 66
2019-03-10 02:00:00 11.8 0 Calma 8 Este 0 -- -- 60
2019-03-10 01:00:00 11.9 6 Este 8 Este 0 -- -- 61
2019-03-10 00:00:00 11.4 6 Sudeste 13 Nordeste 0 -- -- 67
2019-03-09 23:00:00 10.2 12 Nordeste 16 Nordeste 0 -- -- 72
2019-03-09 22:00:00 11.1 15 Nordeste 20 Norte 0 -- -- 69
2019-03-09 21:00:00 12 15 Norte 18 Norte 0 -- -- 71
2019-03-09 20:00:00 13.7 10 Norte 15 Norte 0 -- -- 66
2019-03-09 19:00:00 16.6 11 Norte 18 Nordeste 0 -- -- 57
2019-03-09 18:00:00 18 12 Nordeste 21 Nordeste 0 -- -- 44
2019-03-09 17:00:00 18.6 13 Norte 23 Norte 0 -- -- 44
2019-03-09 16:00:00 18.3 15 Nordeste 27 Norte 0 -- -- 43
2019-03-09 15:00:00 18.2 12 Norte 25 Nordeste 0 -- -- 45
2019-03-09 14:00:00 17.6 12 Nordeste 21 Nordeste 0 -- -- 45
2019-03-09 13:00:00 17.2 7 Este 19 Este 0 -- -- 44
2019-03-09 12:00:00 16 12 Sudeste 22 Sudeste 0 -- -- 48
2019-03-09 11:00:00 14.5 12 Este 18 Este 0 -- -- 57
2019-03-09 10:00:00 12.1 13 Este 17 Este 0 -- -- 72
2019-03-09 09:00:00 9.4 4 Sudeste 8 Sudeste 0 -- -- 77
2019-03-09 08:00:00 8.3 0 Calma 2 Sur 0 -- -- 76
2019-03-09 07:00:00 8.3 0 Calma 3 Sudeste 0 -- -- 77
2019-03-09 06:00:00 8.3 0 Calma 6 Sudeste 0 -- -- 78
2019-03-09 05:00:00 8.2 3 Sudeste 5 Sudeste 0 -- -- 79
2019-03-09 04:00:00 8.2 5 Sudeste 10 Sudeste 0 -- -- 78
2019-03-09 03:00:00 7.9 6 Nordeste 7 Nordeste 0 -- -- 81
2019-03-09 02:00:00 8.3 2 Este 10 Sudeste 0 -- -- 79
2019-03-09 01:00:00 8.7 6 Nordeste 10 Norte 0 -- -- 77
2019-03-09 00:00:00 8.5 5 Nordeste 10 Norte 0 -- -- 79
2019-03-08 23:00:00 9.2 7 Norte 10 Norte 0 -- -- 75
2019-03-08 22:00:00 9.1 8 Norte 13 Norte 0 -- -- 78
2019-03-08 21:00:00 9 12 Norte 22 Norte 0 -- -- 80
2019-03-08 20:00:00 9.8 18 Norte 21 Norte 0 -- -- 77
2019-03-08 19:00:00 12.2 15 Norte 22 Norte 0 -- -- 67
2019-03-08 18:00:00 13.4 15 Norte 21 Norte 0 -- -- 63
2019-03-08 17:00:00 13.2 14 Norte 27 Norte 0 -- -- 63
2019-03-08 16:00:00 13.1 16 Norte 28 Norte 0 -- -- 61
2019-03-08 15:00:00 12.5 12 Norte 26 Noroeste 0 -- -- 65
2019-03-08 14:00:00 11.1 9 Nordeste 22 Nordeste 0 -- -- 75
2019-03-08 13:00:00 9.8 13 Norte 20 Norte 0 -- -- 78
2019-03-08 12:00:00 9.2 14 Norte 20 Norte 0 -- -- 82
2019-03-08 11:00:00 8.9 13 Norte 22 Noroeste 0 -- -- 84
2019-03-08 10:00:00 8 17 Norte 22 Norte 0 -- -- 95
2019-03-08 09:00:00 7.1 14 Norte 17 Noroeste 0 -- -- 97
2019-03-08 08:00:00 6.6 5 Oeste 8 Oeste 0.2 -- -- 97
2019-03-08 07:00:00 6.4 6 Oeste 9 Oeste 0 -- -- 96
2019-03-08 06:00:00 6.4 5 Oeste 6 Oeste 0 -- -- 96
2019-03-08 05:00:00 6.6 7 Noroeste 17 Oeste 0 -- -- 96
2019-03-08 04:00:00 7.3 8 Oeste 15 Oeste 0 -- -- 96
2019-03-08 03:00:00 7.6 11 Oeste 21 Sudoeste 0.2 -- -- 95
2019-03-08 02:00:00 7.9 9 Sudoeste 16 Sur 0.6 -- -- 94
2019-03-08 01:00:00 8 14 Sur 21 Sur 0.2 -- -- 91
2019-03-08 00:00:00 8.3 14 Sur 22 Sur 0.4 -- -- 90
2019-03-07 23:00:00 8.3 15 Sur 21 Sudoeste 1.4 -- -- 91
2019-03-07 22:00:00 8.7 18 Sur 32 Sur 0 -- -- 86
2019-03-07 21:00:00 9.2 20 Sur 26 Sur 0 -- -- 81
2019-03-07 20:00:00 9.5 19 Sur 30 Sur 0 -- -- 78
2019-03-07 19:00:00 10.3 24 Sudoeste 33 Sudoeste 0 -- -- 74
2019-03-07 18:00:00 11.6 20 Sudoeste 31 Sur 0 -- -- 64
2019-03-07 17:00:00 11.9 23 Sudoeste 31 Sudoeste 0 -- -- 64
2019-03-07 16:00:00 11.9 24 Sudoeste 32 Sudoeste 0 -- -- 59
2019-03-07 15:00:00 11.9 19 Oeste 33 Sudoeste 0 -- -- 63
2019-03-07 14:00:00 10.8 15 Oeste 22 Sudoeste 0 -- -- 64
2019-03-07 13:00:00 11.4 12 Sudoeste 22 Oeste 0 -- -- 60
2019-03-07 12:00:00 9.9 8 Oeste 18 Oeste 0 -- -- 74
2019-03-07 11:00:00 8 9 Oeste 15 Oeste 0 -- -- 92
2019-03-07 10:00:00 6 9 Oeste 14 Oeste 0 -- -- 97
2019-03-07 09:00:00 5.5 8 Oeste 13 Oeste 0 -- -- 97
2019-03-07 08:00:00 4.9 7 Oeste 21 Oeste 0 -- -- 97
2019-03-07 07:00:00 4.8 7 Oeste 12 Noroeste 0 -- -- 97
2019-03-07 06:00:00 5.1 11 Oeste 16 Oeste 0 -- -- 97
2019-03-07 05:00:00 5.6 13 Oeste 20 Oeste 0 -- -- 97
2019-03-07 04:00:00 5.6 11 Noroeste 18 Oeste 0 -- -- 96
2019-03-07 03:00:00 5.6 8 Noroeste 21 Noroeste 0 -- -- 96
2019-03-07 02:00:00 5 8 Noroeste 26 Oeste 0 -- -- 95
2019-03-07 01:00:00 5.2 21 Oeste 26 Oeste 0 -- -- 94
2019-03-07 00:00:00 5.5 17 Oeste 20 Oeste 0 -- -- 92
2019-03-06 23:00:00 5.4 12 Oeste 18 Oeste 0 -- -- 91
2019-03-06 22:00:00 6.3 14 Oeste 29 Oeste 0 -- -- 91
2019-03-06 21:00:00 7.4 24 Oeste 35 Oeste 0 -- -- 85
2019-03-06 20:00:00 7.8 22 Oeste 38 Oeste 0 -- -- 81
2019-03-06 19:00:00 9.3 24 Oeste 48 Oeste 0 -- -- 70
2019-03-06 18:00:00 11.2 37 Oeste 62 Oeste 0 -- -- 58
2019-03-06 17:00:00 11.1 39 Oeste 62 Oeste 0 -- -- 67
2019-03-06 16:00:00 10.9 40 Oeste 57 Oeste 0 -- -- 70
2019-03-06 15:00:00 9.9 43 Oeste 59 Oeste 0 -- -- 77
2019-03-06 14:00:00 8.5 48 Oeste 70 Oeste 2 -- -- 93
2019-03-06 13:00:00 10.8 46 Sudoeste 74 Oeste 0.6 -- -- 88
2019-03-06 12:00:00 13.4 44 Sudoeste 65 Sudoeste 0 -- -- 79
2019-03-06 11:00:00 12.1 42 Sudoeste 62 Sur 0 -- -- 83
2019-03-06 10:00:00 11.3 51 Sudoeste 65 Sudoeste 0.2 -- -- 88
2019-03-06 09:00:00 10.8 38 Sudoeste 59 Sudoeste 2.6 -- -- 91
2019-03-06 08:00:00 10.8 36 Sur 64 Sur 1.8 -- -- 92
2019-03-06 07:00:00 10.8 38 Sur 53 Sur 0 -- -- 87
2019-03-06 06:00:00 11.2 32 Sur 52 Sur 0 -- -- 81
2019-03-06 05:00:00 10.9 29 Sur 42 Sur 0 -- -- 79
2019-03-06 04:00:00 10.7 24 Sur 39 Sur 0 -- -- 78
2019-03-06 03:00:00 11.2 23 Sur 49 Sudoeste 0 -- -- 76
2019-03-06 02:00:00 11.5 27 Sur 43 Sur 0 -- -- 77
2019-03-06 01:00:00 11.8 29 Sur 45 Sudoeste 0 -- -- 81
2019-03-06 00:00:00 12.1 28 Sur 39 Sur 0 -- -- 84
2019-03-05 23:00:00 12.4 2 Sur 26 Sudoeste 0 -- -- 83
2019-03-05 22:00:00 12.6 9 Sudeste 26 Sur 0 -- -- 83
2019-03-05 21:00:00 13.1 12 Sudoeste 24 Sur 0 -- -- 82
2019-03-05 20:00:00 13.3 14 Sur 31 Sur 0 -- -- 83
2019-03-05 19:00:00 14.1 21 Sur 37 Sur 0 -- -- 79
2019-03-05 18:00:00 15 27 Sur 38 Sur 0 -- -- 75
2019-03-05 17:00:00 15.7 28 Sur 36 Sur 0 -- -- 71
2019-03-05 16:00:00 15.4 22 Sur 36 Sur 0 -- -- 73
2019-03-05 15:00:00 16.6 22 Sudoeste 37 Sudoeste 0 -- -- 67
2019-03-05 14:00:00 15.1 26 Sudoeste 42 Sudoeste 0 -- -- 72
2019-03-05 13:00:00 15 24 Sudoeste 39 Sur 0 -- -- 72
2019-03-05 12:00:00 14.6 26 Sur 35 Sudoeste 0 -- -- 71
2019-03-05 11:00:00 13.1 14 Sudoeste 19 Sudoeste 0 -- -- 75
2019-03-05 10:00:00 11.3 10 Sur 14 Sudoeste 0 -- -- 83
2019-03-05 09:00:00 9.6 3 Sur 4 Sudeste 0 -- -- 89
2019-03-05 08:00:00 9 3 Sudeste 6 Oeste 0 -- -- 88
2019-03-05 07:00:00 8.9 3 Oeste 6 Sudoeste 0 -- -- 87
2019-03-05 06:00:00 8.6 6 Sudoeste 9 Sudoeste 0 -- -- 87
2019-03-05 05:00:00 8.6 5 Sudoeste 8 Sudoeste 0 -- -- 90
2019-03-05 04:00:00 9 5 Sudoeste 14 Oeste 0 -- -- 89
2019-03-05 03:00:00 9.3 9 Sudoeste 16 Sudoeste 0 -- -- 90
2019-03-05 02:00:00 9.5 12 Sudoeste 23 Sudoeste 0 -- -- 91
2019-03-05 01:00:00 10 20 Oeste 28 Sudoeste 0 -- -- 89
2019-03-05 00:00:00 9.5 17 Sudoeste 20 Sudoeste 0 -- -- 88
2019-03-04 23:00:00 10.4 16 Sudoeste 24 Sudoeste 0 -- -- 86
2019-03-04 22:00:00 11.5 18 Sudoeste 26 Sudoeste 0 -- -- 84
2019-03-04 21:00:00 11.7 9 Sudoeste 15 Sudoeste 0 -- -- 85
2019-03-04 20:00:00 12.2 11 Oeste 26 Oeste 0 -- -- 81
2019-03-04 19:00:00 13.9 15 Oeste 30 Oeste 0 -- -- 74
2019-03-04 18:00:00 16 25 Oeste 36 Sudoeste 0 -- -- 63
2019-03-04 17:00:00 16.4 27 Sudoeste 44 Oeste 0 -- -- 63
2019-03-04 16:00:00 16.1 27 Sudoeste 37 Sudoeste 0 -- -- 67
2019-03-04 15:00:00 15.3 21 Oeste 37 Oeste 0 -- -- 71
2019-03-04 14:00:00 14.1 26 Sudoeste 37 Oeste 0 -- -- 79
2019-03-04 13:00:00 14.1 28 Oeste 36 Oeste 0 -- -- 79
2019-03-04 12:00:00 13.5 24 Oeste 31 Sudoeste 0 -- -- 83
2019-03-04 11:00:00 11.9 18 Sudoeste 24 Sudoeste 0 -- -- 89
2019-03-04 10:00:00 9.2 11 Sudoeste 20 Sudoeste 0 -- -- 98
2019-03-04 09:00:00 7.9 15 Sudoeste 22 Sudoeste 0 -- -- 97
2019-03-04 08:00:00 7.4 16 Sudoeste 23 Oeste 0 -- -- 97
2019-03-04 07:00:00 7.7 15 Oeste 25 Oeste 0 -- -- 96
2019-03-04 06:00:00 7.5 12 Oeste 19 Oeste 0 -- -- 96
2019-03-04 05:00:00 7.6 12 Sudoeste 15 Oeste 0 -- -- 96
2019-03-04 04:00:00 7.5 5 Sudoeste 10 Sur 0 -- -- 94
2019-03-04 03:00:00 7.7 9 Oeste 17 Oeste 0 -- -- 92
2019-03-04 02:00:00 8.6 13 Oeste 20 Oeste 0 -- -- 84
2019-03-04 01:00:00 9.5 8 Sur 12 Sur 0 -- -- 81
2019-03-04 00:00:00 9.9 7 Oeste 15 Sudoeste 0 -- -- 80
2019-03-03 23:00:00 10.8 10 Sudoeste 19 Oeste 0 -- -- 74
2019-03-03 22:00:00 11.9 9 Sudoeste 12 Sudoeste 0 -- -- 70
2019-03-03 21:00:00 13 8 Sudoeste 14 Oeste 0 -- -- 66
2019-03-03 20:00:00 14.2 12 Oeste 22 Oeste 0 -- -- 63
2019-03-03 19:00:00 16.7 19 Noroeste 28 Oeste 0 -- -- 56
2019-03-03 18:00:00 20.1 17 Sudoeste 31 Sudoeste 0 -- -- 43
2019-03-03 17:00:00 21.7 20 Sudoeste 32 Sudoeste 0 -- -- 31
2019-03-03 16:00:00 21.8 21 Sudoeste 30 Sudoeste 0 -- -- 31
2019-03-03 15:00:00 21.5 11 Sudoeste 23 Sur 0 -- -- 31
2019-03-03 14:00:00 20.8 6 Este 14 Nordeste 0 -- -- 37
2019-03-03 13:00:00 19.4 5 Nordeste 15 Oeste 0 -- -- 43
2019-03-03 12:00:00 18.8 5 Sudeste 11 Sudeste 0 -- -- 41
2019-03-03 11:00:00 16.8 5 Este 9 Nordeste 0 -- -- 53
2019-03-03 10:00:00 13.6 5 Este 10 Este 0 -- -- 68
2019-03-03 09:00:00 9.5 6 Este 9 Nordeste 0 -- -- 78
2019-03-03 08:00:00 7.5 5 Norte 15 Noroeste 0 -- -- 85
2019-03-03 07:00:00 10.8 0 Calma 4 Noroeste 0 -- -- 66
2019-03-03 06:00:00 11 2 Nordeste 3 Este 0 -- -- 66
2019-03-03 05:00:00 10.5 0 Calma 10 Este 0 -- -- 72
2019-03-03 04:00:00 10.7 8 Sudeste 10 Sudeste 0 -- -- 71
2019-03-03 03:00:00 10.4 6 Sudeste 8 Sur 0 -- -- 77
2019-03-03 02:00:00 11.7 0 Calma 5 Norte 0 -- -- 78
2019-03-03 01:00:00 11.3 3 Sur 8 Sudeste 0 -- -- 78
2019-03-03 00:00:00 12.2 3 Sur 4 Sudeste 0 -- -- 74
2019-03-02 23:00:00 12.1 2 Sur 7 Sudeste 0 -- -- 67
2019-03-02 22:00:00 12.5 0 Calma 13 Noroeste 0 -- -- 67
2019-03-02 21:00:00 12.8 11 Norte 15 Noroeste 0 -- -- 58
2019-03-02 20:00:00 14.7 11 Noroeste 13 Noroeste 0 -- -- 53
2019-03-02 19:00:00 17.3 7 Noroeste 10 Noroeste 0 -- -- 48
2019-03-02 18:00:00 18.7 6 Norte 15 Noroeste 0 -- -- 43
2019-03-02 17:00:00 19.1 3 Nordeste 15 Noroeste 0 -- -- 45
2019-03-02 16:00:00 18.2 7 Noroeste 19 Noroeste 0 -- -- 46
2019-03-02 15:00:00 17.5 4 Oeste 14 Oeste 0 -- -- 50
2019-03-02 14:00:00 16.1 9 Noroeste 18 Noroeste 0 -- -- 61
2019-03-02 13:00:00 14.3 9 Noroeste 17 Oeste 0 -- -- 68
2019-03-02 12:00:00 12.7 5 Norte 13 Oeste 0 -- -- 71
2019-03-02 11:00:00 10.7 6 Oeste 13 Oeste 0 -- -- 81
2019-03-02 10:00:00 8.9 4 Oeste 14 Sudoeste 0 -- -- 88
2019-03-02 09:00:00 7.1 6 Sudoeste 8 Sudoeste 0 -- -- 92
2019-03-02 08:00:00 6.9 5 Sudoeste 7 Sudoeste 0 -- -- 91
2019-03-02 07:00:00 7 5 Sudoeste 9 Sudoeste 0 -- -- 92
2019-03-02 06:00:00 7 9 Sur 12 Sudoeste 0 -- -- 94
2019-03-02 05:00:00 6.4 4 Sudoeste 11 Oeste 0 -- -- 93
2019-03-02 04:00:00 6.8 9 Sudoeste 10 Sudoeste 0 -- -- 92
2019-03-02 03:00:00 6.8 8 Oeste 12 Oeste 0 -- -- 91
2019-03-02 02:00:00 7.6 9 Oeste 12 Oeste 0 -- -- 88
2019-03-02 01:00:00 8.6 8 Sudoeste 11 Sudoeste 0 -- -- 83
2019-03-02 00:00:00 9.3 9 Sudoeste 10 Sudoeste 0 -- -- 80
2019-03-01 23:00:00 10 5 Sudoeste 5 Sudoeste 0 -- -- 76
2019-03-01 22:00:00 10.9 4 Oeste 11 Oeste 0 -- -- 69
2019-03-01 21:00:00 11.2 9 Oeste 15 Oeste 0 -- -- 69
2019-03-01 20:00:00 12.3 12 Noroeste 20 Noroeste 0 -- -- 67
2019-03-01 19:00:00 15.1 15 Noroeste 22 Oeste 0 -- -- 53
2019-03-01 18:00:00 16.7 19 Noroeste 27 Noroeste 0 -- -- 54
2019-03-01 17:00:00 16.8 10 Oeste 34 Noroeste 0 -- -- 51
2019-03-01 16:00:00 17.6 13 Noroeste 22 Oeste 0 -- -- 44
2019-03-01 15:00:00 18.6 6 Oeste 23 Oeste 0 -- -- 39
2019-03-01 14:00:00 18.2 6 Oeste 12 Sudoeste 0 -- -- 40
2019-03-01 13:00:00 16.9 3 Sudeste 10 Oeste 0 -- -- 49
2019-03-01 12:00:00 15.3 3 Norte 9 Noroeste 0 -- -- 57
2019-03-01 11:00:00 13 4 Noroeste 7 Noroeste 0 -- -- 68
2019-03-01 10:00:00 11.2 3 Sur 5 Sur 0 -- -- 76
2019-03-01 09:00:00 8.9 0 Calma 3 Nordeste 0 -- -- 80
2019-03-01 08:00:00 8.4 4 Norte 8 Este 0 -- -- 81
2019-03-01 07:00:00 8.4 5 Sudeste 6 Sudeste 0 -- -- 81
2019-03-01 06:00:00 9.1 0 Calma 3 Nordeste 0 -- -- 80
2019-03-01 05:00:00 9.3 0 Calma 3 Noroeste 0 -- -- 80
2019-03-01 04:00:00 9.3 0 Calma 2 Sudeste 0 -- -- 79
2019-03-01 03:00:00 9.7 0 Calma 5 Norte 0 -- -- 78
2019-03-01 02:00:00 10.2 5 Norte 6 Norte 0 -- -- 75
2019-03-01 01:00:00 10.3 0 Calma 2 Oeste 0 -- -- 72
2019-03-01 00:00:00 10.8 0 Calma 5 Noroeste 0 -- -- 68
2019-02-28 23:00:00 11.2 3 Norte 5 Norte 0 -- -- 65
2019-02-28 22:00:00 11.9 3 Norte 9 Noroeste 0 -- -- 60
2019-02-28 21:00:00 12.2 2 Norte 13 Norte 0 -- -- 57
2019-02-28 20:00:00 12.5 11 Norte 18 Nordeste 0 -- -- 57
2019-02-28 19:00:00 14.4 13 Nordeste 25 Norte 0 -- -- 55
2019-02-28 18:00:00 16.2 22 Norte 26 Norte 0 -- -- 51
2019-02-28 17:00:00 18.6 8 Noroeste 25 Noroeste 0 -- -- 41
2019-02-28 16:00:00 18.8 9 Noroeste 17 Noroeste 0 -- -- 39
2019-02-28 15:00:00 19 7 Oeste 18 Oeste 0 -- -- 39
2019-02-28 14:00:00 17.8 5 Noroeste 14 Noroeste 0 -- -- 40
2019-02-28 13:00:00 16.9 5 Nordeste 16 Norte 0 -- -- 49
2019-02-28 12:00:00 15.2 6 Norte 15 Norte 0 -- -- 53
2019-02-28 11:00:00 13.5 6 Norte 12 Nordeste 0 -- -- 63
2019-02-28 10:00:00 11.7 2 Nordeste 4 Norte 0 -- -- 70
2019-02-28 09:00:00 9.3 0 Calma 4 Sudeste 0 -- -- 76
2019-02-28 08:00:00 7.7 0 Calma 4 Sudeste 0 -- -- 80
2019-02-28 07:00:00 7.8 3 Sur -- -- 0 -- -- 78
2019-02-28 06:00:00 8 3 Sudoeste 4 Sudoeste 0 -- -- 75
2019-02-28 05:00:00 8.3 0 Calma 4 Noroeste 0 -- -- 72
2019-02-28 04:00:00 8.8 0 Calma 4 Oeste 0 -- -- 68
2019-02-28 03:00:00 9.3 3 Oeste 6 Noroeste 0 -- -- 63
2019-02-28 02:00:00 9.5 0 Calma 4 Oeste 0 -- -- 60
2019-02-28 01:00:00 9.6 3 Oeste 4 Oeste 0 -- -- 58
2019-02-28 00:00:00 9.9 3 Sudoeste 5 Sudoeste 0 -- -- 58
2019-02-27 23:00:00 10 4 Sudoeste 5 Sudoeste 0 -- -- 58
2019-02-27 22:00:00 9.9 3 Sur 9 Oeste 0 -- -- 59
2019-02-27 21:00:00 9.6 9 Norte 24 Noroeste 0 -- -- 59
2019-02-27 20:00:00 11.4 19 Norte 23 Noroeste 0 -- -- 54
2019-02-27 19:00:00 13.8 12 Noroeste 20 Oeste 0 -- -- 48
2019-02-27 18:00:00 16.1 17 Noroeste 21 Noroeste 0 -- -- 41
2019-02-27 17:00:00 17.1 11 Noroeste 32 Noroeste 0 -- -- 36
2019-02-27 16:00:00 18 18 Noroeste 28 Noroeste 0 -- -- 35
2019-02-27 15:00:00 18.3 13 Oeste 24 Oeste 0 -- -- 29
2019-02-27 14:00:00 18.6 15 Oeste 27 Oeste 0 -- -- 26
2019-02-27 13:00:00 18.2 11 Oeste 18 Sudoeste 0 -- -- 28
2019-02-27 12:00:00 17.2 9 Sudeste 16 Sudeste 0 -- -- 30
2019-02-27 11:00:00 15.1 10 Sudeste 27 Sudeste 0 -- -- 33
2019-02-27 10:00:00 12.6 20 Sudeste 29 Sudeste 0 -- -- 37
2019-02-27 09:00:00 9.8 24 Sudeste 33 Este 0 -- -- 42
2019-02-27 08:00:00 8.4 28 Este 34 Sudeste 0 -- -- 44
2019-02-27 07:00:00 9 26 Sudeste 42 Sudeste 0 -- -- 42
2019-02-27 06:00:00 9.1 32 Sudeste 41 Sudeste 0 -- -- 43
2019-02-27 05:00:00 9.2 28 Sudeste 39 Sudeste 0 -- -- 42
2019-02-27 04:00:00 8.3 26 Este 37 Sudeste 0 -- -- 45
2019-02-27 03:00:00 8 30 Este 38 Este 0 -- -- 47
2019-02-27 02:00:00 9.4 31 Sudeste 40 Este 0 -- -- 43
2019-02-27 01:00:00 8.9 28 Este 34 Este 0 -- -- 46
2019-02-27 00:00:00 8.4 21 Sudeste 30 Este 0 -- -- 49
2019-02-26 23:00:00 10.6 25 Sudeste 30 Este 0 -- -- 44
2019-02-26 22:00:00 11.6 21 Sudeste 34 Este 0 -- -- 42
2019-02-26 21:00:00 12.8 24 Sudeste 35 Sudeste 0 -- -- 39
2019-02-26 20:00:00 13.9 27 Sudeste 34 Este 0 -- -- 36
2019-02-26 19:00:00 15.5 21 Sudeste 32 Este 0 -- -- 35
2019-02-26 18:00:00 18.9 22 Sudeste 39 Sudeste 0 -- -- 30
2019-02-26 17:00:00 19.9 27 Sudeste 39 Sudeste 0 -- -- 25
2019-02-26 16:00:00 20.5 29 Sudeste 42 Sudeste 0 -- -- 22
2019-02-26 15:00:00 20 30 Sudeste 45 Sudeste 0 -- -- 23
2019-02-26 14:00:00 19.7 29 Sudeste 44 Sudeste 0 -- -- 26
2019-02-26 13:00:00 18.7 30 Sudeste 44 Este 0 -- -- 28
2019-02-26 12:00:00 17.6 30 Sudeste 42 Sudeste 0 -- -- 29
2019-02-26 11:00:00 15.2 27 Sudeste 40 Sudeste 0 -- -- 34
2019-02-26 10:00:00 12.4 31 Sudeste 42 Sudeste 0 -- -- 45
2019-02-26 09:00:00 8.6 28 Este 37 Este 0 -- -- 61
2019-02-26 08:00:00 7.6 24 Sudeste 37 Este 0 -- -- 63
2019-02-26 07:00:00 7.3 23 Este 34 Sudeste 0 -- -- 66
2019-02-26 06:00:00 9 27 Sudeste 35 Sudeste 0 -- -- 54
2019-02-26 05:00:00 8.4 29 Sudeste 37 Sudeste 0 -- -- 61
2019-02-26 04:00:00 8.2 20 Este 28 Sudeste 0 -- -- 67
2019-02-26 03:00:00 8.8 23 Este 31 Este 0 -- -- 67
2019-02-26 02:00:00 8.8 21 Este 28 Este 0 -- -- 67
2019-02-26 01:00:00 8.8 21 Este 30 Este 0 -- -- 69
2019-02-26 00:00:00 10.4 21 Este 29 Este 0 -- -- 63
2019-02-25 23:00:00 11.5 21 Sudeste 27 Sudeste 0 -- -- 60
2019-02-25 22:00:00 11.6 21 Sudeste 26 Sudeste 0 -- -- 61
2019-02-25 21:00:00 12.1 22 Sudeste 26 Este 0 -- -- 56
2019-02-25 20:00:00 13 17 Sudeste 20 Sudeste 0 -- -- 54
2019-02-25 19:00:00 16.1 15 Sudeste 24 Sudeste 0 -- -- 43
2019-02-25 18:00:00 18.7 17 Sudeste 26 Sudeste 0 -- -- 38
2019-02-25 17:00:00 19.6 16 Sudeste 25 Sudeste 0 -- -- 38
2019-02-25 16:00:00 19.4 15 Este 25 Sudeste 0 -- -- 41
2019-02-25 15:00:00 18.8 13 Sudeste 28 Sudeste 0 -- -- 41
2019-02-25 14:00:00 18 17 Este 27 Sudeste 0 -- -- 41
2019-02-25 13:00:00 17 15 Este 27 Este 0 -- -- 44
2019-02-25 12:00:00 15.5 17 Este 24 Este 0 -- -- 46
2019-02-25 11:00:00 13.7 13 Este 19 Este 0 -- -- 50
2019-02-25 10:00:00 11.5 14 Este 26 Sudeste 0 -- -- 55
2019-02-25 09:00:00 9 18 Sudeste 27 Sudeste 0 -- -- 57
2019-02-25 08:00:00 7.9 26 Sudeste 32 Sudeste 0 -- -- 62
2019-02-25 07:00:00 8 27 Sudeste 30 Sudeste 0 -- -- 59
2019-02-25 06:00:00 8.7 22 Este 32 Este 0 -- -- 54
2019-02-25 05:00:00 8.6 26 Sudeste 30 Sudeste 0 -- -- 54
2019-02-25 04:00:00 9 21 Este 33 Sudeste 0 -- -- 51
2019-02-25 03:00:00 9 23 Sudeste 31 Sudeste 0 -- -- 52
2019-02-25 02:00:00 9.7 24 Sudeste 31 Sudeste 0 -- -- 49
2019-02-25 01:00:00 9.8 21 Sudeste 28 Este 0 -- -- 50
2019-02-25 00:00:00 10.3 23 Sudeste 29 Sudeste 0 -- -- 50
2019-02-24 23:00:00 12 20 Este 26 Este 0 -- -- 47
2019-02-24 22:00:00 13.8 14 Este 23 Este 0 -- -- 43
2019-02-24 21:00:00 13.4 19 Sudeste 24 Sudeste 0 -- -- 45
2019-02-24 20:00:00 14.7 20 Sudeste 23 Sudeste 0 -- -- 41
2019-02-24 19:00:00 16.7 16 Sudeste 22 Sudeste 0 -- -- 39
2019-02-24 18:00:00 19.6 16 Sudeste 23 Este 0 -- -- 32
2019-02-24 17:00:00 21.1 8 Este 23 Sudeste 0 -- -- 27
2019-02-24 16:00:00 20.9 8 Este 21 Este 0 -- -- 30
2019-02-24 15:00:00 20.6 8 Este 23 Sudeste 0 -- -- 31
2019-02-24 14:00:00 19.8 13 Este 31 Este 0 -- -- 31
2019-02-24 13:00:00 18.2 10 Nordeste 19 Nordeste 0 -- -- 45
2019-02-24 12:00:00 17.8 9 Este 15 Este 0 -- -- 38
2019-02-24 11:00:00 14.5 4 Nordeste 7 Nordeste 0 -- -- 57
2019-02-24 10:00:00 11.6 0 Calma 5 Oeste 0 -- -- 65
2019-02-24 09:00:00 9.5 3 Oeste 6 Oeste 0 -- -- 67
2019-02-24 08:00:00 9.5 4 Sudeste 6 Este 0 -- -- 68
2019-02-24 07:00:00 8.9 5 Sudeste 12 Este 0 -- -- 71
2019-02-24 06:00:00 9.4 10 Este 19 Este 0 -- -- 68
2019-02-24 05:00:00 10.3 6 Nordeste 9 Nordeste 0 -- -- 64
2019-02-24 04:00:00 10.7 3 Noroeste 5 Norte 0 -- -- 63
2019-02-24 03:00:00 10.3 4 Oeste 12 Oeste 0 -- -- 64
2019-02-24 02:00:00 10.6 8 Oeste 10 Oeste 0 -- -- 64
2019-02-24 01:00:00 11 3 Sudoeste 8 Oeste 0 -- -- 63
2019-02-24 00:00:00 10.7 5 Sudoeste 8 Oeste 0 -- -- 63
2019-02-23 23:00:00 11.6 4 Oeste 9 Noroeste 0 -- -- 57
2019-02-23 22:00:00 11.4 5 Oeste 17 Noroeste 0 -- -- 57
2019-02-23 21:00:00 12.1 17 Noroeste 20 Noroeste 0 -- -- 55
2019-02-23 20:00:00 13.2 18 Noroeste 23 Noroeste 0 -- -- 51
2019-02-23 19:00:00 14.4 21 Noroeste 26 Noroeste 0 -- -- 47
2019-02-23 18:00:00 17.6 17 Noroeste 22 Norte 0 -- -- 41
2019-02-23 17:00:00 19 17 Norte 27 Norte 0 -- -- 32
2019-02-23 16:00:00 19.4 17 Norte 28 Nordeste 0 -- -- 33
2019-02-23 15:00:00 18.8 15 Norte 27 Norte 0 -- -- 36
2019-02-23 14:00:00 18.5 17 Norte 25 Norte 0 -- -- 40
2019-02-23 13:00:00 17.9 12 Nordeste 21 Nordeste 0 -- -- 45
2019-02-23 12:00:00 16.2 12 Nordeste 17 Nordeste 0 -- -- 56
2019-02-23 11:00:00 13.3 9 Nordeste 14 Nordeste 0 -- -- 65
2019-02-23 10:00:00 11.9 2 Nordeste 4 Nordeste 0 -- -- 65
2019-02-23 09:00:00 10.4 2 Noroeste 2 Oeste 0 -- -- 57
2019-02-23 08:00:00 10 0 Calma 2 Oeste 0 -- -- 58
2019-02-23 07:00:00 10.7 2 Noroeste 5 Nordeste 0 -- -- 56
2019-02-23 06:00:00 10.1 0 Calma 7 Oeste 0 -- -- 55
2019-02-23 05:00:00 11.3 6 Nordeste 6 Nordeste 0 -- -- 52
2019-02-23 04:00:00 11.2 2 Oeste 4 Sudeste 0 -- -- 50
2019-02-23 03:00:00 10.4 3 Sudeste 12 Este 0 -- -- 54
2019-02-23 02:00:00 11.9 6 Este 9 Este 0 -- -- 49
2019-02-23 01:00:00 11.7 0 Calma 7 Este 0 -- -- 51
2019-02-23 00:00:00 11.1 3 Sudeste 9 Oeste 0 -- -- 52
2019-02-22 23:00:00 12.6 7 Sudeste 12 Sudeste 0 -- -- 48
2019-02-22 22:00:00 11.5 11 Sudeste 15 Sudeste 0 -- -- 55
2019-02-22 21:00:00 11.9 13 Sudeste 14 Sudeste 0 -- -- 54
2019-02-22 20:00:00 12.4 12 Sudeste 15 Sudeste 0 -- -- 52
2019-02-22 19:00:00 15.2 13 Sudeste 21 Sudeste 0 -- -- 42
2019-02-22 18:00:00 18.2 15 Sudeste 30 Sudeste 0 -- -- 36
2019-02-22 17:00:00 19.1 12 Sudeste 26 Sudeste 0 -- -- 32
2019-02-22 16:00:00 19.3 13 Sudeste 27 Sur 0 -- -- 31
2019-02-22 15:00:00 19.2 20 Sur 31 Sur 0 -- -- 31
2019-02-22 14:00:00 18.6 19 Sur 29 Sudeste 0 -- -- 35
2019-02-22 13:00:00 17.4 21 Sudeste 32 Sudeste 0 -- -- 39
2019-02-22 12:00:00 16 25 Sudeste 36 Sudeste 0 -- -- 39
2019-02-22 11:00:00 13.9 24 Sudeste 35 Sudeste 0 -- -- 43
2019-02-22 10:00:00 11.3 22 Sudeste 32 Sudeste 0 -- -- 53
2019-02-22 09:00:00 9.2 27 Sudeste 36 Sudeste 0 -- -- 56
2019-02-22 08:00:00 7.9 27 Sudeste 37 Sudeste 0 -- -- 62
2019-02-22 07:00:00 7.7 27 Sudeste 36 Sudeste 0 -- -- 65
2019-02-22 06:00:00 8.4 30 Sudeste 37 Este 0 -- -- 63
2019-02-22 05:00:00 8.1 27 Sudeste 38 Este 0 -- -- 65
2019-02-22 04:00:00 9.2 30 Sudeste 36 Este 0 -- -- 59
2019-02-22 03:00:00 8.9 24 Sudeste 32 Sudeste 0 -- -- 64
2019-02-22 02:00:00 9.4 27 Sudeste 33 Sudeste 0 -- -- 65
2019-02-22 01:00:00 9.2 24 Este 31 Este 0 -- -- 71
2019-02-22 00:00:00 9.8 15 Este 22 Este 0 -- -- 70
2019-02-21 23:00:00 9 4 Sudeste 20 Sudeste 0 -- -- 73
2019-02-21 22:00:00 9.1 11 Este 19 Sudeste 0 -- -- 73
2019-02-21 21:00:00 10.4 9 Sudeste 13 Sudeste 0 -- -- 70
2019-02-21 20:00:00 11.5 9 Sur 18 Sudeste 0 -- -- 67
2019-02-21 19:00:00 13.4 16 Sudeste 20 Sudeste 0 -- -- 59
2019-02-21 18:00:00 16.1 17 Sur 24 Sur 0 -- -- 51
2019-02-21 17:00:00 17.3 16 Sur 26 Sur 0 -- -- 46
2019-02-21 16:00:00 17.6 19 Sur 30 Sur 0 -- -- 45
2019-02-21 15:00:00 17.3 16 Sudeste 30 Sudeste 0 -- -- 46
2019-02-21 14:00:00 16.9 19 Sudeste 33 Sudeste 0 -- -- 47
2019-02-21 13:00:00 15.5 24 Sudeste 35 Este 0 -- -- 53
2019-02-21 12:00:00 13.9 28 Sudeste 42 Sudeste 0 -- -- 57
2019-02-21 11:00:00 12 34 Sudeste 45 Sudeste 0 -- -- 61
2019-02-21 10:00:00 9.5 31 Sudeste 43 Este 0 -- -- 74
2019-02-21 09:00:00 7.7 29 Sudeste 39 Sudeste 0 -- -- 78
2019-02-21 08:00:00 6.3 27 Sudeste 34 Sudeste 0 -- -- 85
2019-02-21 07:00:00 6 23 Este 35 Sudeste 0 -- -- 86
2019-02-21 06:00:00 6.8 27 Sudeste 34 Sudeste 0 -- -- 83
2019-02-21 05:00:00 6.5 23 Este 33 Este 0 -- -- 82
2019-02-21 04:00:00 7.5 24 Este 31 Este 0 -- -- 78
2019-02-21 03:00:00 7.2 24 Sudeste 27 Sudeste 0 -- -- 85
2019-02-21 02:00:00 8.9 21 Este 27 Sudeste 0 -- -- 78
2019-02-21 01:00:00 9.1 19 Sudeste 22 Sudeste 0 -- -- 79
2019-02-21 00:00:00 10.4 14 Este 20 Sudeste 0 -- -- 74
2019-02-20 23:00:00 10 19 Sudeste 21 Sudeste 0 -- -- 75
2019-02-20 22:00:00 10.3 18 Sudeste 20 Sudeste 0 -- -- 73
2019-02-20 21:00:00 10.3 13 Sudeste 18 Sudeste 0 -- -- 75
2019-02-20 20:00:00 11.4 14 Sudeste 16 Sudeste 0 -- -- 71
2019-02-20 19:00:00 13 12 Sudeste 18 Sudeste 0 -- -- 62
2019-02-20 18:00:00 15.3 12 Sudeste 18 Sudeste 0 -- -- 53
2019-02-20 17:00:00 16 9 Este 18 Sudeste 0 -- -- 51
2019-02-20 16:00:00 15.8 8 Este 17 Este 0 -- -- 55
2019-02-20 15:00:00 14.6 9 Sudeste 17 Sudeste 0 -- -- 59
2019-02-20 14:00:00 14.4 8 Sudeste 17 Este 0 -- -- 63
2019-02-20 13:00:00 14.6 8 Sudeste 19 Sudeste 0 -- -- 65
2019-02-20 12:00:00 12.9 10 Este 17 Este 0 -- -- 73
2019-02-20 11:00:00 11.2 12 Este 17 Este 0 -- -- 79
2019-02-20 10:00:00 9.5 7 Este 13 Sudeste 0 -- -- 82
2019-02-20 09:00:00 7.9 13 Sudeste 15 Sudeste 0 -- -- 83
2019-02-20 08:00:00 7.6 14 Sudeste 21 Este 0 -- -- 82
2019-02-20 07:00:00 8.4 14 Este 20 Este 0 -- -- 80
2019-02-20 06:00:00 8.2 14 Este 20 Este 0 -- -- 86
2019-02-20 05:00:00 7.6 7 Este 11 Este 0 -- -- 94
2019-02-20 04:00:00 7.5 0 Calma 4 Sur 0 -- -- 95
2019-02-20 03:00:00 7.6 3 Sur 4 Sur 0 -- -- 95
2019-02-20 02:00:00 7.8 3 Sur 5 Sudoeste 0 -- -- 94
2019-02-20 01:00:00 8.4 0 Calma 5 Oeste 0 -- -- 92
2019-02-20 00:00:00 8.5 0 Calma 7 Sur 0 -- -- 92